Latest Weather Observations for Cape Leeuwin

IDW60801

Issued at 3:35 am WST Saturday 30 August 2014 (issued every 30 minutes, with the page automatically refreshed every 10 minutes)

About weather observations | Map of weather stations | Latest weather observations for WA | Other Formats
Station Details ID: 009518 Name: CAPE LEEUWIN Lat: -34.37 Lon: 115.14 Height: 13.0 m
Data from the previous 72 hours. | See also: Recent months at Cape Leeuwin
Date/Time
WST
Temp
°C
App
Temp
°C
Dew
Point
Rel
Hum
%
Delta-T
°C
Wind Press
QNH
hPa
Press
MSL
hPa
Rain
since 9 am
mm
Dir
 
Spd
km/h
Gust
km/h
Spd
kts
Gust
kts
30/03:30am 14.5 7.7 10.7 78 2.0 WSW 37 44 20 24 1012.4 1012.4 4.8
30/03:00am 14.2 6.6 11.8 85 1.3 WSW 43 50 23 27 1012.3 1012.3 4.8
30/02:30am 14.7 7.9 12.1 84 1.4 WSW 39 46 21 25 1012.1 1012.1 4.8
30/02:00am 14.5 7.1 12.3 87 1.2 WSW 43 50 23 27 1012.0 1012.0 4.8
30/01:42am 15.7 5.9 13.2 85 1.4 WSW 57 63 31 34 1011.5 1011.5 4.6
30/01:41am 15.9 9.8 13.0 83 1.6 W 37 61 20 33 1011.5 1011.5 4.6
30/01:30am 16.2 10.4 10.8 70 2.9 W 32 37 17 20 1011.5 1011.5 4.6
30/01:00am 15.7 12.3 11.4 75 2.3 W 20 26 11 14 1011.6 1011.6 4.6
30/12:30am 15.5 11.4 11.4 76 2.2 W 24 30 13 16 1011.7 1011.7 4.6
30/12:00am 15.2 13.3 11.9 81 1.8 W 13 17 7 9 1011.6 1011.6 4.6
 
Date/Time
WST
Temp
°C
App
Temp
°C
Dew
Point
Rel
Hum
%
Delta-T
°C
Wind Press
QNH
hPa
Press
MSL
hPa
Rain
since 9 am
mm
Dir
 
Spd
km/h
Gust
km/h
Spd
kts
Gust
kts
29/11:30pm 15.0 13.5 11.9 82 1.7 W 11 15 6 8 1011.8 1011.8 4.6
29/11:00pm 14.6 13.5 12.0 84 1.4 W 9 13 5 7 1011.9 1011.9 4.6
29/10:30pm 14.1 13.6 11.9 86 1.2 SW 6 9 3 5 1011.7 1011.7 4.6
29/10:00pm 14.1 13.6 12.1 88 1.1 SW 6 11 3 6 1011.9 1011.9 4.6
29/09:30pm 14.5 14.0 12.5 88 1.1 WSW 7 9 4 5 1011.8 1011.8 4.6
29/09:00pm 14.8 13.3 13.2 90 0.9 SW 13 17 7 9 1012.3 1012.3 4.6
29/08:30pm 14.7 12.8 13.1 90 0.9 SW 15 20 8 11 1012.1 1012.1 4.6
29/08:00pm 15.1 13.0 13.5 90 0.9 SW 17 20 9 11 1012.0 1012.0 4.6
29/07:30pm 14.9 11.8 13.3 90 0.9 WSW 22 28 12 15 1011.8 1011.8 4.6
29/07:00pm 15.4 12.4 13.8 90 0.9 WSW 22 26 12 14 1011.5 1011.5 4.6
29/06:30pm 15.4 11.6 13.6 89 1.0 W 26 30 14 16 1011.2 1011.2 4.6
29/06:00pm 16.0 12.7 14.1 88 1.1 WNW 24 28 13 15 1010.6 1010.6 4.0
29/05:30pm 15.4 13.1 14.0 91 0.8 W 19 22 10 12 1010.7 1010.7 3.8
29/05:00pm 15.7 13.3 13.7 88 1.1 NNW 19 20 10 11 1010.8 1010.8 2.8
29/04:30pm 15.8 13.5 12.9 83 1.6 W 17 22 9 12 1010.3 1010.3 2.8
29/04:00pm 16.1 13.6 12.3 78 2.1 WNW 17 20 9 11 1010.5 1010.5 2.8
29/03:30pm 16.6 13.4 11.8 73 2.6 W 20 28 11 15 1010.3 1010.3 2.8
29/03:00pm 16.5 13.1 11.1 70 2.9 W 20 26 11 14 1010.1 1010.1 2.8
29/02:30pm 17.1 14.3 11.2 68 3.2 W 17 22 9 12 1010.0 1010.0 2.8
29/02:00pm 17.1 13.3 11.2 68 3.2 W 22 26 12 14 1010.1 1010.1 2.8
29/01:30pm 16.9 14.1 11.4 70 3.0 WNW 17 20 9 11 1009.9 1009.9 2.8
29/01:00pm 16.1 12.8 11.7 75 2.4 WNW 20 24 11 13 1010.3 1010.3 2.8
29/12:30pm 15.7 10.7 10.8 72 2.6 W 28 35 15 19 1010.7 1010.7 2.2
29/12:00pm 16.7 13.3 12.5 76 2.3 WSW 22 28 12 15 1010.5 1010.5 2.2
29/11:30am 16.6 12.9 11.6 72 2.7 WSW 22 30 12 16 1010.5 1010.5 2.2
29/11:00am 16.3 13.0 12.9 80 1.9 W 22 32 12 17 1010.8 1010.8 2.2
29/10:30am 16.3 12.8 13.5 83 1.6 W 24 30 13 16 1010.7 1010.7 2.2
29/10:00am 15.7 11.9 13.7 88 1.1 WSW 26 32 14 17 1010.4 1010.4 2.2
29/09:30am 15.4 11.5 14.5 94 0.5 WSW 28 37 15 20 1010.3 1010.3 2.2
29/09:00am 15.6 10.8 14.6 94 0.6 WSW 33 39 18 21 1010.1 1010.1 40.8
29/08:30am 16.2 11.6 14.6 90 0.9 W 32 39 17 21 1010.1 1010.1 40.6
29/08:00am 16.7 11.0 15.2 91 0.9 WNW 39 44 21 24 1009.2 1009.2 40.6
29/07:30am 16.7 9.9 14.4 86 1.3 WNW 43 54 23 29 1009.2 1009.2 39.6
29/07:00am 16.6 11.1 14.7 88 1.1 WNW 37 43 20 23 1009.0 1009.0 39.6
29/06:30am 16.6 10.4 14.9 90 1.0 WNW 41 48 22 26 1009.0 1009.0 39.4
29/06:00am 16.4 11.3 14.7 90 1.0 WNW 35 39 19 21 1008.6 1008.6 38.8
29/05:30am 16.6 10.9 15.2 91 0.8 W 39 46 21 25 1008.5 1008.5 38.2
29/05:00am 17.1 10.1 14.3 83 1.6 WNW 44 52 24 28 1008.2 1008.2 37.6
29/04:30am 17.3 10.6 14.7 85 1.5 WNW 43 54 23 29 1008.0 1008.0 36.6
29/04:00am 16.9 10.4 15.0 88 1.1 W 43 54 23 29 1007.8 1007.8 36.6
29/03:30am 17.5 10.2 14.6 83 1.7 WNW 46 56 25 30 1007.9 1007.9 36.4
29/03:00am 17.2 11.1 15.1 87 1.2 WNW 41 48 22 26 1007.7 1007.7 36.4
29/02:30am 17.1 10.6 15.7 91 0.8 WNW 44 54 24 29 1007.8 1007.8 36.4
29/02:00am 16.7 9.5 15.9 95 0.5 WNW 48 56 26 30 1008.4 1008.4 35.6
29/01:30am 17.2 9.4 16.2 94 0.6 WNW 52 61 28 33 1008.3 1008.3 33.2
29/01:20am 17.1 9.3 16.3 95 0.5 WNW 52 63 28 34 1008.2 1008.2 32.2
29/01:00am 17.5 10.0 16.0 91 0.9 NW 50 70 27 38 1008.1 1008.1 27.4
29/12:30am 17.5 10.3 15.8 90 1.0 NW 48 67 26 36 1008.4 1008.4 26.4
29/12:00am 18.0 11.0 16.3 90 1.0 NW 48 61 26 33 1008.6 1008.6 24.8
 
Date/Time
WST
Temp
°C
App
Temp
°C
Dew
Point
Rel
Hum
%
Delta-T
°C
Wind Press
QNH
hPa
Press
MSL
hPa
Rain
since 9 am
mm
Dir
 
Spd
km/h
Gust
km/h
Spd
kts
Gust
kts
28/11:30pm 17.7 8.8 15.8 89 1.1 NNW 57 67 31 36 1008.7 1008.7 24.8
28/11:00pm 17.6 8.6 15.0 85 1.5 NW 56 76 30 41 1009.2 1009.2 24.6
28/10:40pm 17.4 10.2 14.8 85 1.5 NNW 46 65 25 35 1009.3 1009.3 24.0
28/10:30pm 17.6 9.6 14.7 83 1.7 NNW 50 63 27 34 1009.4 1009.4 24.0
28/10:00pm 17.4 10.4 14.3 82 1.8 NNW 44 63 24 34 1009.6 1009.6 24.0
28/09:30pm 16.8 9.6 14.7 87 1.2 NNW 46 56 25 30 1009.7 1009.7 24.0
28/09:00pm 17.0 8.2 15.5 91 0.9 NW 56 67 30 36 1009.7 1009.7 24.0
28/08:30pm 17.2 8.3 15.8 91 0.8 NW 57 70 31 38 1010.1 1010.1 23.4
28/08:00pm 16.4 6.9 14.3 87 1.2 WNW 57 67 31 36 1010.3 1010.3 21.6
28/07:30pm 17.1 8.3 15.6 91 0.9 NW 56 65 30 35 1009.9 1009.9 19.0
28/07:00pm 17.4 8.0 15.5 89 1.1 NW 59 70 32 38 1009.5 1009.5 17.2
28/06:43pm 17.5 6.2 15.6 89 1.1 WNW 69 87 37 47 1009.2 1009.2 16.4
28/06:37pm 15.8 2.0 14.4 91 0.8 WNW 80 87 43 47 1009.1 1009.1 15.2
28/06:35pm 19.0 9.9 16.2 84 1.7 NW 59 80 32 43 1009.1 1009.1 12.6
28/06:30pm 19.0 9.7 15.8 82 1.9 NW 59 74 32 40 1008.9 1008.9 12.6
28/06:00pm 19.2 9.9 15.8 81 2.0 NW 59 74 32 40 1009.1 1009.1 12.6
28/05:30pm 19.1 10.2 15.7 80 2.0 NW 57 69 31 37 1009.1 1009.1 12.6
28/05:00pm 18.9 11.2 15.5 80 2.0 NNW 50 69 27 37 1009.1 1009.1 12.6
28/04:57pm 18.9 11.6 15.5 80 2.0 NNW 48 69 26 37 1009.1 1009.1 12.6
28/04:30pm 18.9 10.9 15.7 82 1.9 NNW 52 65 28 35 1009.4 1009.4 12.6
28/04:00pm 18.8 10.3 15.4 80 2.0 NW 54 67 29 36 1009.4 1009.4 12.6
28/03:30pm 18.7 9.0 14.7 77 2.3 NW 59 70 32 38 1009.1 1009.1 12.6
28/03:01pm 18.3 8.2 14.7 79 2.1 NW 61 80 33 43 1009.2 1009.2 12.6
28/03:00pm 18.3 7.8 14.7 79 2.1 NW 63 80 34 43 1009.2 1009.2 12.6
28/02:30pm 18.2 6.9 13.2 72 2.8 NW 65 83 35 45 1009.2 1009.2 12.6
28/02:02pm 18.3 8.8 13.7 74 2.6 NNW 56 78 30 42 1009.6 1009.6 12.6
28/02:00pm 18.5 8.8 13.6 73 2.8 NNW 57 74 31 40 1009.5 1009.5 12.6
28/01:58pm 18.4 9.0 13.9 75 2.6 NNW 56 74 30 40 1009.6 1009.6 12.6
28/01:30pm 18.2 8.7 15.1 82 1.8 NW 59 74 32 40 1009.8 1009.8 12.6
28/01:03pm 17.9 8.7 14.6 81 1.9 NW 56 82 30 44 1010.1 1010.1 12.6
28/01:00pm 17.9 9.3 15.0 83 1.7 NW 54 69 29 37 1010.3 1010.3 12.6
28/12:54pm 18.2 9.1 15.3 83 1.7 NW 57 76 31 41 1010.3 1010.3 12.6
28/12:30pm 18.4 7.2 14.6 78 2.2 NW 67 82 36 44 1010.4 1010.4 12.4
28/12:00pm 17.8 7.8 14.9 83 1.7 NW 61 87 33 47 1010.4 1010.4 12.4
28/11:38am 17.2 8.3 15.7 91 0.9 WNW 57 76 31 41 1010.9 1010.9 12.2
28/11:30am 16.7 6.9 15.5 93 0.7 WNW 61 74 33 40 1011.1 1011.1 11.8
28/11:20am 16.4 6.6 15.5 94 0.5 WNW 61 80 33 43 1011.4 1011.4 10.2
28/11:15am 16.5 5.1 15.1 91 0.8 WNW 69 80 37 43 1010.9 1010.9 6.2
28/11:13am 18.3 10.1 16.1 87 1.3 NNW 54 76 29 41 1010.9 1010.9 5.0
28/11:00am 18.4 10.9 15.9 85 1.5 NNW 50 63 27 34 1010.8 1010.8 4.4
28/10:30am 17.5 8.7 15.6 89 1.1 NNW 56 82 30 44 1011.2 1011.2 4.0
28/10:17am 18.4 10.5 15.9 85 1.5 NNW 52 70 28 38 1011.2 1011.2 0.8
28/10:00am 19.2 11.1 15.3 78 2.3 NNW 52 69 28 37 1011.3 1011.3 0.0
28/09:52am 19.2 11.3 14.9 76 2.5 NNW 50 69 27 37 1011.2 1011.2 0.0
28/09:30am 19.1 11.4 15.4 79 2.2 NNW 50 61 27 33 1011.4 1011.4 0.0
28/09:00am 19.0 11.3 15.6 80 2.0 NNW 50 63 27 34 1011.5 1011.5 0.8
28/08:31am 18.8 11.9 15.6 82 1.9 NNW 46 65 25 35 1011.7 1011.7 0.8
28/08:30am 18.8 11.5 15.6 82 1.9 NNW 48 65 26 35 1011.8 1011.8 0.8
28/08:09am 18.9 9.8 15.3 79 2.1 NW 57 76 31 41 1011.6 1011.6 0.8
28/08:00am 18.8 8.8 15.0 78 2.2 NW 61 78 33 42 1011.6 1011.6 0.8
28/07:36am 18.6 10.0 15.2 80 2.0 NW 54 72 29 39 1011.6 1011.6 0.8
28/07:30am 18.7 10.3 15.5 81 1.9 NW 54 69 29 37 1011.5 1011.5 0.8
28/07:00am 18.7 9.8 15.3 80 2.0 NW 56 67 30 36 1011.4 1011.4 0.4
28/06:47am 18.6 12.4 15.9 84 1.6 NNW 43 61 23 33 1011.5 1011.5 0.4
28/06:30am 18.0 11.6 15.4 85 1.5 NNW 43 54 23 29 1011.6 1011.6 0.4
28/06:00am 16.4 12.8 14.3 87 1.2 N 26 39 14 21 1011.7 1011.7 0.4
28/05:30am 15.7 10.9 13.9 89 1.0 N 32 50 17 27 1011.6 1011.6 0.4
28/05:00am 15.4 11.3 13.8 90 0.9 N 28 35 15 19 1011.7 1011.7 0.4
28/04:38am 15.7 10.8 13.7 88 1.1 N 32 50 17 27 1011.9 1011.9 0.0
28/04:30am 15.8 10.3 13.5 86 1.3 N 35 50 19 27 1011.7 1011.7 0.0
28/04:00am 15.5 10.8 13.3 87 1.2 N 30 41 16 22 1012.0 1012.0 0.0
28/03:30am 15.4 11.4 13.1 86 1.3 N 26 35 14 19 1012.3 1012.3 0.0
28/03:00am 15.4 10.5 12.7 84 1.5 N 30 43 16 23 1012.5 1012.5 0.0
28/02:43am 15.3 10.5 12.8 85 1.4 N 30 48 16 26 1012.5 1012.5 0.0
28/02:30am 15.4 10.0 12.7 84 1.5 N 33 46 18 25 1013.0 1013.0 0.0
28/02:00am 15.0 9.7 12.4 84 1.4 N 32 48 17 26 1013.5 1013.5 0.0
28/01:54am 15.2 10.2 12.3 83 1.6 N 30 48 16 26 1013.4 1013.4 0.0
28/01:30am 15.1 9.9 11.6 79 1.9 NNE 30 41 16 22 1013.6 1013.6 0.0
28/01:00am 14.9 10.0 11.3 79 1.9 NNE 28 39 15 21 1013.8 1013.8 0.0
28/12:30am 15.2 11.1 11.5 78 2.0 N 24 35 13 19 1014.6 1014.6 0.0
28/12:00am 14.8 12.4 11.4 80 1.8 NNE 15 24 8 13 1014.9 1014.9 0.0
 
Date/Time
WST
Temp
°C
App
Temp
°C
Dew
Point
Rel
Hum
%
Delta-T
°C
Wind Press
QNH
hPa
Press
MSL
hPa
Rain
since 9 am
mm
Dir
 
Spd
km/h
Gust
km/h
Spd
kts
Gust
kts
27/11:30pm 16.1 13.0 12.1 77 2.2 N 20 28 11 15 1015.5 1015.5 0.0
27/11:00pm 16.6 12.3 12.0 74 2.5 NNW 26 30 14 16 1015.5 1015.5 0.0
27/10:30pm 17.2 10.7 11.7 70 3.0 NW 37 46 20 25 1016.1 1016.1 0.0
27/10:00pm 17.0 10.2 11.9 72 2.8 NW 39 46 21 25 1016.4 1016.4 0.0
27/09:30pm 17.0 9.2 11.9 72 2.8 NW 44 52 24 28 1016.5 1016.5 0.0
27/09:00pm 16.9 7.8 11.1 68 3.1 NW 50 59 27 32 1016.9 1016.9 0.0
27/08:30pm 16.7 7.4 10.5 67 3.3 NW 50 59 27 32 1016.7 1016.7 0.0
27/08:00pm 16.8 6.6 9.9 64 3.6 NW 54 63 29 34 1016.6 1016.6 0.0
27/07:30pm 16.8 6.9 9.7 63 3.7 NW 52 61 28 33 1016.0 1016.0 0.0
27/07:00pm 16.7 8.0 9.8 63 3.6 NW 46 56 25 30 1016.0 1016.0 0.0
27/06:30pm 16.9 7.9 10.3 65 3.5 NW 48 56 26 30 1016.1 1016.1 0.0
27/06:00pm 17.1 8.1 10.1 63 3.7 NW 48 56 26 30 1016.2 1016.2 0.0
27/05:30pm 17.0 10.8 9.5 61 3.9 NNW 32 41 17 22 1016.1 1016.1 0.0
27/05:00pm 17.2 10.3 10.2 63 3.7 NNW 37 46 20 25 1016.2 1016.2 0.0
27/04:30pm 17.4 8.6 10.9 65 3.5 NW 48 57 26 31 1016.4 1016.4 0.0
27/04:19pm 17.6 9.6 11.1 65 3.5 NW 44 52 24 28 1016.3 1016.3 0.0
27/04:00pm 17.7 11.9 9.5 58 4.3 N 30 43 16 23 1016.1 1016.1 0.0
27/03:30pm 18.0 12.1 10.5 61 4.0 N 32 46 17 25 1016.5 1016.5 0.0
27/03:05pm 17.8 11.1 9.8 59 4.2 N 35 54 19 29 1016.7 1016.7 0.0
27/03:00pm 17.6 10.0 9.1 57 4.4 NNW 39 54 21 29 1016.8 1016.8 0.0
27/02:57pm 17.6 10.9 9.6 59 4.2 NNW 35 54 19 29 1016.7 1016.7 0.0
27/02:30pm 17.7 11.2 9.0 56 4.5 NNW 33 41 18 22 1016.8 1016.8 0.0
27/02:00pm 17.5 9.8 8.5 55 4.6 NNW 39 48 21 26 1017.3 1017.3 0.0
27/01:30pm 17.4 10.7 8.2 54 4.7 NNW 33 39 18 21 1017.2 1017.2 0.0
27/01:00pm 17.5 10.8 8.3 54 4.7 NNW 33 44 18 24 1017.3 1017.3 0.0
27/12:30pm 17.1 13.5 8.5 57 4.4 N 17 28 9 15 1018.0 1018.0 0.0
27/12:00pm 15.1 11.3 9.2 68 3.0 N 19 26 10 14 1018.7 1018.7 0.0
27/11:30am 14.9 11.0 8.8 67 3.1 NNE 19 24 10 13 1019.4 1019.4 0.0
27/11:00am 14.8 10.6 8.4 65 3.2 NNE 20 30 11 16 1019.8 1019.8 0.0
27/10:30am 15.3 11.6 7.9 61 3.7 NNE 17 26 9 14 1020.3 1020.3 0.0
27/10:00am 14.2 9.7 7.0 62 3.5 N 20 28 11 15 1020.6 1020.6 0.0
27/09:30am 14.3 10.9 7.8 65 3.2 N 15 20 8 11 1020.8 1020.8 0.0
27/09:00am 14.8 10.6 8.2 64 3.3 NNW 20 26 11 14 1020.9 1020.9 0.0
27/08:30am 13.1 9.0 8.0 71 2.5 N 19 26 10 14 1020.9 1020.9 0.0
27/08:00am 11.2 6.8 7.2 76 1.9 NNE 20 28 11 15 1020.5 1020.5 0.0
27/07:30am 10.7 5.8 6.9 77 1.8 NNE 22 30 12 16 1020.2 1020.2 0.0
27/07:00am 10.1 4.4 6.7 79 1.6 NNE 26 32 14 17 1020.1 1020.1 0.0
27/06:30am 10.2 4.9 6.6 78 1.7 NNE 24 30 13 16 1020.2 1020.2 0.0
27/06:00am 10.3 4.9 6.4 77 1.8 NNE 24 32 13 17 1020.3 1020.3 0.0
27/05:30am 10.8 4.6 6.3 74 2.1 NNE 28 32 15 17 1020.4 1020.4 0.0
27/05:00am 11.4 4.8 6.0 69 2.5 NNE 30 41 16 22 1020.4 1020.4 0.0
27/04:30am 11.6 5.7 6.0 68 2.6 NE 26 30 14 16 1020.7 1020.7 0.0
27/04:00am 12.3 5.8 6.6 68 2.7 ENE 30 37 16 20 1020.9 1020.9 0.0

Other Formats:

Comma delimited format used in spreadsheet applications
http://www.bom.gov.au/fwo/IDW60801/IDW60801.94601.axf

JavaScript Object Notation format (JSON) in row-major order
http://www.bom.gov.au/fwo/IDW60801/IDW60801.94601.json